Time;durP1;ratioP1;P1;durP2;ratioP2;P2;SDS_P1;SDS_P2;PMS_P1;PMS_P2;Temp;Humidity;BMP_temperature;BMP_pressure;BME280_temperature;BME280_humidity;BME280_pressure;Samples;Min_cycle;Max_cycle;Signal;HPM_P1;HPM_P2
2022/04/14 00:01:48;;;;;;;3.60;1.58;;;;;;;3.92;61.36;100186.44;4951809;28;20094;-80
2022/04/14 00:04:14;;;;;;;1.88;1.42;;;;;;;3.89;61.47;100192.34;4953382;28;20038;-81
2022/04/14 00:06:40;;;;;;;2.15;1.50;;;;;;;3.77;61.77;100176.63;4965227;28;20027;-82
2022/04/14 00:09:06;;;;;;;2.67;1.65;;;;;;;3.39;62.12;100128.47;4974224;28;20145;-80
2022/04/14 00:11:33;;;;;;;3.97;1.67;;;;;;;3.43;62.27;100145.75;4962220;28;20047;-80
2022/04/14 00:14:01;;;;;;;3.08;1.60;;;;;;;3.08;61.95;100086.56;4966817;28;20073;-80
2022/04/14 00:16:27;;;;;;;3.55;2.20;;;;;;;3.73;62.15;100218.56;4923934;28;20042;-79
2022/04/14 00:18:54;;;;;;;2.17;1.80;;;;;;;3.38;62.63;100151.63;4984445;23;20050;-80
2022/04/14 00:21:20;;;;;;;5.40;2.00;;;;;;;2.98;62.28;100097.41;4965843;28;20395;-81
2022/04/14 00:23:46;;;;;;;2.80;1.70;;;;;;;3.21;62.87;100131.44;4975012;28;20057;-79
2022/04/14 00:26:13;;;;;;;3.05;1.70;;;;;;;3.33;62.93;100155.75;4972861;28;20046;-82
2022/04/14 00:28:41;;;;;;;4.78;2.05;;;;;;;3.50;62.82;100166.50;4988643;28;20046;-82
2022/04/14 00:31:07;;;;;;;3.78;1.90;;;;;;;3.26;62.43;100142.72;4973344;28;20046;-80
2022/04/14 00:33:33;;;;;;;3.53;1.80;;;;;;;3.30;62.55;100154.00;4989833;28;20076;-80
2022/04/14 00:35:59;;;;;;;3.22;1.77;;;;;;;3.28;62.84;100135.94;4971016;28;20510;-79
2022/04/14 00:38:26;;;;;;;6.45;2.17;;;;;;;3.66;62.67;100198.63;4973571;28;20394;-83
2022/04/14 00:40:55;;;;;;;3.47;2.25;;;;;;;3.45;62.82;100180.13;4975119;28;20064;-80
2022/04/14 00:43:32;;;;;;;3.85;2.35;;;;;;;3.07;62.49;100131.09;4989867;28;20381;-81
2022/04/14 00:45:59;;;;;;;3.00;2.13;;;;;;;3.47;63.33;100195.56;4970842;28;20038;-81
2022/04/14 00:48:26;;;;;;;4.10;2.00;;;;;;;3.55;63.23;100199.22;4975744;28;20053;-80
2022/04/14 00:50:52;;;;;;;3.95;2.30;;;;;;;3.26;63.14;100150.44;4991191;28;20042;-78
2022/04/14 00:53:18;;;;;;;5.57;2.47;;;;;;;3.44;63.81;100186.09;4988982;28;20046;-79
2022/04/14 00:55:44;;;;;;;3.33;2.30;;;;;;;3.39;63.54;100189.38;4990840;28;20050;-79
2022/04/14 00:58:11;;;;;;;3.10;1.90;;;;;;;3.42;63.84;100190.31;4973598;28;20038;-81
2022/04/14 01:00:38;;;;;;;2.78;1.90;;;;;;;3.26;63.93;100154.72;4974724;28;20610;-84
2022/04/14 01:03:04;;;;;;;3.10;1.90;;;;;;;3.45;63.60;100179.22;4956884;28;20038;-81
2022/04/14 01:05:31;;;;;;;3.20;1.73;;;;;;;3.42;63.95;100164.59;4988477;28;20050;-81
2022/04/14 01:07:58;;;;;;;3.42;1.67;;;;;;;3.50;63.88;100171.66;4990356;28;20073;-80
2022/04/14 01:10:25;;;;;;;3.13;1.73;;;;;;;3.58;63.66;100191.59;4964144;28;20038;-80
2022/04/14 01:12:54;;;;;;;3.28;1.73;;;;;;;3.56;63.65;100171.78;4990742;28;20100;-82
2022/04/14 01:15:20;;;;;;;3.05;1.50;;;;;;;3.68;63.56;100194.38;4990394;28;20042;-81
2022/04/14 01:17:46;;;;;;;3.78;1.80;;;;;;;3.73;63.81;100195.38;5000922;28;20082;-77
2022/04/14 01:20:13;;;;;;;2.40;1.50;;;;;;;3.77;63.50;100192.91;4984596;28;20559;-81
2022/04/14 01:22:53;;;;;;;2.33;1.40;;;;;;;3.82;63.82;100193.06;4965557;28;20042;-78
2022/04/14 01:25:20;;;;;;;2.97;1.42;;;;;;;3.72;64.00;100168.78;4973075;28;20069;-80
2022/04/14 01:27:45;;;;;;;4.40;1.60;;;;;;;3.62;63.32;100174.53;4973819;28;20070;-79
2022/04/14 01:30:12;;;;;;;5.22;1.52;;;;;;;3.77;63.98;100192.06;4988764;28;20157;-80
2022/04/14 01:32:38;;;;;;;1.90;1.30;;;;;;;3.62;63.69;100177.09;4966905;28;20045;-78
2022/04/14 01:35:06;;;;;;;1.92;1.52;;;;;;;3.74;63.74;100182.56;4971253;28;20050;-81
2022/04/14 01:37:31;;;;;;;2.50;1.65;;;;;;;3.85;63.82;100195.72;4970708;28;20679;-79
2022/04/14 01:39:57;;;;;;;1.95;1.10;;;;;;;3.68;63.45;100166.06;4987208;28;21012;-81
2022/04/14 01:42:23;;;;;;;1.80;1.50;;;;;;;3.83;63.94;100183.63;4971019;28;20757;-79
2022/04/14 01:44:50;;;;;;;3.45;1.50;;;;;;;3.80;63.18;100176.69;4975724;28;20030;-79
2022/04/14 01:47:16;;;;;;;1.85;1.38;;;;;;;3.87;63.49;100194.00;4970380;28;20897;-79
2022/04/14 01:49:42;;;;;;;1.70;1.40;;;;;;;3.76;63.25;100169.72;4967947;28;20042;-81
2022/04/14 01:52:09;;;;;;;2.20;1.30;;;;;;;3.91;63.26;100190.69;4989343;28;20042;-82
2022/04/14 01:54:35;;;;;;;3.38;2.08;;;;;;;3.92;63.79;100169.25;4972565;28;20537;-80
2022/04/14 01:57:01;;;;;;;5.78;2.20;;;;;;;4.17;63.27;100202.47;4987033;28;20105;-80
2022/04/14 01:59:27;;;;;;;3.65;2.10;;;;;;;4.08;63.07;100177.38;4987420;28;20042;-80
2022/04/14 02:01:53;;;;;;;3.50;2.35;;;;;;;4.03;62.84;100179.81;4987926;28;20044;-80
2022/04/14 02:04:19;;;;;;;2.58;2.10;;;;;;;4.09;63.16;100199.69;4986599;28;20042;-78
2022/04/14 02:06:45;;;;;;;4.03;2.20;;;;;;;4.02;62.89;100200.41;4969657;28;20046;-82
2022/04/14 02:09:12;;;;;;;2.75;1.98;;;;;;;3.97;63.30;100189.09;4969574;28;20038;-79
2022/04/14 02:11:38;;;;;;;3.20;2.03;;;;;;;3.71;62.43;100155.84;4986420;28;20659;-78
2022/04/14 02:14:04;;;;;;;2.60;1.75;;;;;;;3.97;62.58;100208.00;4988757;28;20038;-78
2022/04/14 02:16:30;;;;;;;2.67;1.88;;;;;;;3.82;62.91;100199.88;4976903;28;20110;-79
2022/04/14 02:18:56;;;;;;;4.45;2.10;;;;;;;3.76;63.16;100214.34;4994024;28;20082;-80
2022/04/14 02:21:21;;;;;;;3.15;2.20;;;;;;;3.79;62.68;100221.28;4993409;28;20125;-82
2022/04/14 02:23:47;;;;;;;3.08;2.20;;;;;;;3.83;62.95;100227.38;4991464;28;20485;-79
2022/04/14 02:26:16;;;;;;;4.32;2.00;;;;;;;3.72;62.98;100206.50;4992692;28;20143;-78
2022/04/14 02:28:42;;;;;;;3.55;1.75;;;;;;;3.85;63.36;100221.47;4974757;28;20046;-82
2022/04/14 02:31:08;;;;;;;5.10;2.40;;;;;;;3.89;63.08;100228.41;4962006;28;20707;-79
2022/04/14 02:33:33;;;;;;;2.97;2.08;;;;;;;3.80;63.03;100212.75;4990632;28;20030;-81
2022/04/14 02:35:59;;;;;;;3.03;2.20;;;;;;;3.34;62.43;100144.66;4979149;28;21220;-82
2022/04/14 02:38:25;;;;;;;3.25;1.73;;;;;;;3.21;62.11;100146.88;4995715;28;20098;-81
2022/04/14 02:40:51;;;;;;;2.85;1.85;;;;;;;3.56;62.99;100210.38;4995099;28;20018;-80
2022/04/14 02:43:17;;;;;;;3.63;2.28;;;;;;;3.44;62.71;100198.06;4978483;28;20053;-81
2022/04/14 02:45:43;;;;;;;3.60;2.40;;;;;;;3.60;62.76;100215.69;4973022;28;20100;-80
2022/04/14 02:48:09;;;;;;;3.55;2.47;;;;;;;3.35;62.97;100188.41;5001029;28;20101;-80
2022/04/14 02:50:36;;;;;;;3.05;2.40;;;;;;;3.39;62.91;100200.53;4976108;28;20429;-80
2022/04/14 02:53:03;;;;;;;3.38;2.15;;;;;;;3.44;63.09;100208.34;4988893;28;20073;-80
2022/04/14 02:55:29;;;;;;;4.88;2.38;;;;;;;3.39;63.26;100217.69;4964522;28;20042;-80
2022/04/14 02:57:55;;;;;;;3.58;2.25;;;;;;;3.39;63.06;100233.13;4948889;28;20045;-82
2022/04/14 03:00:22;;;;;;;3.72;2.20;;;;;;;3.27;63.26;100207.94;4986067;28;20046;-80
2022/04/14 03:02:48;;;;;;;3.97;2.33;;;;;;;3.25;62.88;100207.88;4967092;28;20052;-80
2022/04/14 03:05:14;;;;;;;3.40;2.70;;;;;;;3.32;63.08;100221.75;4970048;28;20049;-82
2022/04/14 03:07:40;;;;;;;4.00;2.33;;;;;;;3.22;63.13;100209.50;4987131;28;20052;-79
2022/04/14 03:10:07;;;;;;;2.55;2.03;;;;;;;3.37;63.51;100242.50;4988427;28;20048;-80
2022/04/14 03:12:46;;;;;;;3.33;2.40;;;;;;;3.33;63.19;100227.78;4969112;28;20132;-79
2022/04/14 03:15:13;;;;;;;4.22;2.30;;;;;;;3.21;63.33;100200.03;4986158;28;20045;-80
2022/04/14 03:17:40;;;;;;;3.33;2.10;;;;;;;3.48;63.39;100238.50;4969487;28;20058;-78
2022/04/14 03:20:06;;;;;;;2.35;1.88;;;;;;;3.39;63.01;100220.25;4969821;28;20182;-79
2022/04/14 03:22:36;;;;;;;3.22;2.40;;;;;;;3.45;63.29;100236.72;5003858;28;20046;-81
2022/04/14 03:25:07;;;;;;;3.08;2.13;;;;;;;3.43;63.14;100225.50;4985051;28;20045;-81
2022/04/14 03:27:35;;;;;;;2.65;1.77;;;;;;;3.49;63.09;100231.66;4996180;28;20121;-80
2022/04/14 03:30:01;;;;;;;2.13;1.80;;;;;;;3.49;63.23;100232.53;4989008;28;20133;-81
2022/04/14 03:32:28;;;;;;;3.10;1.98;;;;;;;3.46;63.33;100212.72;4959824;28;20034;-81
2022/04/14 03:34:54;;;;;;;1.48;1.38;;;;;;;3.64;63.44;100210.63;4991102;28;20501;-81
2022/04/14 03:37:22;;;;;;;2.47;1.65;;;;;;;4.08;62.94;100275.25;4991472;28;20058;-80
2022/04/14 03:39:48;;;;;;;1.83;1.50;;;;;;;4.11;62.81;100264.13;4991102;28;20034;-79
2022/04/14 03:42:14;;;;;;;2.17;1.80;;;;;;;4.19;62.06;100276.38;4992270;28;20541;-80
2022/04/14 03:44:40;;;;;;;1.95;1.75;;;;;;;4.26;62.70;100279.09;4990066;28;20140;-79
2022/04/14 03:47:07;;;;;;;3.38;1.88;;;;;;;4.14;62.52;100265.06;4978458;28;20038;-81
2022/04/14 03:49:33;;;;;;;1.77;1.42;;;;;;;4.26;62.60;100272.22;4962623;28;20128;-80
2022/04/14 03:51:59;;;;;;;1.83;1.60;;;;;;;4.42;62.76;100277.75;4996919;28;20120;-80
2022/04/14 03:54:28;;;;;;;1.60;1.40;;;;;;;4.30;61.91;100256.03;4995068;28;20051;-83
2022/04/14 03:56:54;;;;;;;3.70;1.67;;;;;;;4.55;61.93;100278.91;4995865;28;20046;-77
2022/04/14 03:59:20;;;;;;;2.30;1.27;;;;;;;4.31;61.58;100238.84;4980222;28;20045;-80
2022/04/14 04:01:48;;;;;;;1.73;1.38;;;;;;;4.31;62.01;100218.22;4979512;28;20053;-83
2022/04/14 04:04:14;;;;;;;3.00;1.00;;;;;;;4.53;61.31;100255.69;4995601;28;20050;-80
2022/04/14 04:06:40;;;;;;;2.63;1.23;;;;;;;4.67;61.78;100262.03;4976275;28;20080;-82
2022/04/14 04:09:09;;;;;;;2.05;1.40;;;;;;;4.77;61.17;100268.25;4978324;28;20450;-77
2022/04/14 04:11:36;;;;;;;1.40;1.30;;;;;;;4.95;61.53;100267.78;4974973;28;20142;-78
2022/04/14 04:14:01;;;;;;;1.48;1.10;;;;;;;4.89;61.39;100234.13;4979254;28;20038;-80
2022/04/14 04:16:28;;;;;;;2.17;1.25;;;;;;;4.99;61.16;100230.03;4978812;28;20053;-80
2022/04/14 04:18:53;;;;;;;4.18;1.40;;;;;;;5.36;60.63;100253.13;5003622;28;20058;-78
2022/04/14 04:21:20;;;;;;;2.95;1.52;;;;;;;5.55;60.76;100262.09;4979926;28;20042;-77
2022/04/14 04:23:46;;;;;;;1.73;1.40;;;;;;;5.85;60.87;100268.66;4979841;28;20049;-76
2022/04/14 04:26:12;;;;;;;5.63;1.60;;;;;;;5.86;59.92;100241.97;4938300;28;20101;-80
2022/04/14 04:28:38;;;;;;;2.00;1.40;;;;;;;6.18;59.23;100255.47;4975253;28;20458;-79
2022/04/14 04:31:04;;;;;;;1.98;1.40;;;;;;;6.46;59.44;100273.16;4990756;28;20093;-78
2022/04/14 04:33:32;;;;;;;1.83;1.55;;;;;;;6.36;59.13;100240.25;4959197;28;20051;-78
2022/04/14 04:35:58;;;;;;;1.90;1.60;;;;;;;6.79;58.64;100264.16;4976081;28;20050;-80
2022/04/14 04:38:24;;;;;;;2.83;1.67;;;;;;;6.93;58.50;100264.34;4997070;28;20097;-78
2022/04/14 04:40:51;;;;;;;2.25;1.90;;;;;;;6.93;57.84;100231.59;4976989;28;20042;-82
2022/04/14 04:43:17;;;;;;;3.60;1.70;;;;;;;7.14;56.79;100258.59;4978128;28;20465;-82
2022/04/14 04:45:44;;;;;;;2.72;1.95;;;;;;;7.24;57.05;100252.66;4989644;28;20108;-79
2022/04/14 04:48:18;;;;;;;2.85;2.17;;;;;;;7.37;56.60;100266.63;4989447;28;20122;-83
2022/04/14 04:50:48;;;;;;;4.15;2.05;;;;;;;7.29;56.15;100231.16;4989250;28;20410;-80
2022/04/14 04:53:23;;;;;;;3.88;2.00;;;;;;;6.62;55.91;100096.69;4970057;28;20073;-80
2022/04/14 04:55:59;;;;;;;2.78;1.70;;;;;;;7.79;55.74;100259.31;4991624;28;20049;-79
2022/04/14 04:58:31;;;;;;;1.95;1.75;;;;;;;7.50;55.09;100182.19;4997167;28;20053;-81
2022/04/14 05:01:12;;;;;;;1.92;1.40;;;;;;;7.05;54.75;100090.25;4992714;28;20073;-80
2022/04/14 05:04:16;;;;;;;;;;;;;;;;;;;;;
2022/04/14 05:07:06;;;;;;;2.10;1.50;;;;;;;7.29;53.71;100081.84;4972361;28;20050;-80
2022/04/14 05:09:35;;;;;;;2.65;1.48;;;;;;;8.48;53.93;100189.84;4956538;28;20176;-80
2022/04/14 05:12:01;;;;;;;3.92;1.73;;;;;;;9.34;54.22;100218.81;4971498;28;20104;-80
2022/04/14 05:14:27;;;;;;;8.48;2.00;;;;;;;11.39;53.59;100243.75;4990244;28;20038;-81
2022/04/14 05:16:53;;;;;;;2.60;1.60;;;;;;;13.69;51.37;100232.81;4993358;28;20466;-81
2022/04/14 05:19:19;;;;;;;9.52;1.60;;;;;;;15.89;48.48;100233.03;4983578;28;20157;-81
2022/04/14 05:21:48;;;;;;;4.82;1.35;;;;;;;17.56;45.86;100224.13;4953023;28;20175;-82
2022/04/14 05:24:15;;;;;;;3.42;1.77;;;;;;;19.03;42.78;100207.81;4999630;28;20061;-80
2022/04/14 05:26:41;;;;;;;2.20;1.80;;;;;;;20.45;39.20;100228.53;5011797;28;20030;-80
2022/04/14 05:29:09;;;;;;;3.03;1.52;;;;;;;21.59;35.78;100226.13;5000844;28;20081;-83
2022/04/14 05:31:37;;;;;;;2.58;1.70;;;;;;;22.82;34.44;100218.22;5001505;28;20089;-80
2022/04/14 05:34:03;;;;;;;9.70;2.17;;;;;;;23.79;32.17;100200.53;5004131;28;20402;-81
2022/04/14 05:36:40;;;;;;;3.05;1.52;;;;;;;24.73;30.12;100207.44;4998701;28;20042;-81
2022/04/14 05:39:15;;;;;;;1.70;1.60;;;;;;;25.29;29.26;100169.31;4973813;28;20113;-79
2022/04/14 05:41:41;;;;;;;1.92;1.50;;;;;;;25.79;27.58;100193.63;4962598;28;20038;-79
2022/04/14 05:44:07;;;;;;;4.32;1.45;;;;;;;26.54;27.11;100194.81;4989372;28;20070;-79
2022/04/14 05:46:33;;;;;;;3.33;1.20;;;;;;;27.28;25.62;100208.28;4972305;28;20449;-79
2022/04/14 05:48:59;;;;;;;7.97;1.52;;;;;;;27.91;24.37;100213.50;4973909;28;20042;-79
2022/04/14 05:51:26;;;;;;;3.95;1.40;;;;;;;28.22;23.38;100208.50;4988508;28;20065;-83
2022/04/14 05:53:53;;;;;;;3.95;1.55;;;;;;;28.85;22.43;100170.63;4987750;28;20046;-84
2022/04/14 05:56:20;;;;;;;1.73;1.60;;;;;;;29.34;21.70;100167.63;4967381;28;20080;-82
2022/04/14 05:58:46;;;;;;;2.45;1.52;;;;;;;30.08;20.37;100197.34;4987605;28;20097;-82
2022/04/14 06:01:12;;;;;;;4.63;1.80;;;;;;;30.42;20.09;100173.84;4970771;28;20038;-85
2022/04/14 06:03:40;;;;;;;7.10;1.50;;;;;;;31.07;19.23;100196.84;4987635;28;20517;-81
2022/04/14 06:06:08;;;;;;;5.63;1.55;;;;;;;31.52;18.66;100192.88;4971768;28;20409;-82
2022/04/14 06:08:35;;;;;;;2.72;1.50;;;;;;;31.71;18.33;100181.28;4955368;28;20101;-80
2022/04/14 06:11:00;;;;;;;4.45;1.40;;;;;;;31.83;18.35;100188.22;4970300;28;20034;-81
2022/04/14 06:13:26;;;;;;;3.40;2.00;;;;;;;32.54;17.79;100182.59;4967900;28;20045;-83
2022/04/14 06:15:52;;;;;;;3.85;1.30;;;;;;;33.02;17.22;100181.50;4986734;28;20070;-82
2022/04/14 06:18:21;;;;;;;2.42;1.15;;;;;;;33.32;16.53;100200.22;4950748;28;20093;-84
2022/04/14 06:20:49;;;;;;;5.28;1.58;;;;;;;33.38;15.76;100161.03;4989241;28;20117;-82
2022/04/14 06:23:25;;;;;;;2.80;1.10;;;;;;;33.39;15.70;100114.19;4970595;28;20061;-84
2022/04/14 06:25:52;;;;;;;2.83;1.42;;;;;;;33.80;15.23;100169.31;4967894;28;20568;-82
2022/04/14 06:28:23;;;;;;;4.43;1.20;;;;;;;34.06;14.91;100170.41;4977846;28;20144;-83
2022/04/14 06:30:51;;;;;;;5.90;1.30;;;;;;;34.20;14.86;100123.91;4986442;28;20040;-83
2022/04/14 06:33:23;;;;;;;3.25;1.20;;;;;;;35.47;14.30;100195.34;4971691;28;20064;-83
2022/04/14 06:35:52;;;;;;;2.75;1.30;;;;;;;35.43;13.38;100157.78;4981247;28;20106;-85
2022/04/14 06:38:31;;;;;;;4.30;1.20;;;;;;;35.21;13.72;100161.13;4958163;28;20191;-84
2022/04/14 06:40:57;;;;;;;1.40;1.20;;;;;;;35.07;13.58;100133.75;4978819;28;20042;-87
2022/04/14 06:43:30;;;;;;;1.48;1.00;;;;;;;35.64;13.61;100136.72;4975766;28;20038;-85
2022/04/14 06:45:58;;;;;;;2.92;1.10;;;;;;;35.29;12.74;100190.91;4969627;28;20951;-87
2022/04/14 06:48:24;;;;;;;2.78;1.10;;;;;;;34.93;12.30;100204.63;4987570;28;20042;-83
2022/04/14 06:50:50;;;;;;;3.15;1.15;;;;;;;34.71;13.26;100201.50;4987573;28;20112;-84
2022/04/14 06:53:16;;;;;;;2.13;1.15;;;;;;;34.89;13.02;100197.88;4969543;28;20034;-83
2022/04/14 06:55:45;;;;;;;4.45;1.17;;;;;;;34.62;12.75;100186.25;4986200;28;20042;-82
2022/04/14 06:58:11;;;;;;;2.30;1.10;;;;;;;34.82;13.05;100203.91;4973304;28;20417;-82
2022/04/14 07:00:37;;;;;;;1.80;1.20;;;;;;;34.71;12.23;100146.63;4968529;28;20042;-81
2022/04/14 07:03:03;;;;;;;3.10;1.50;;;;;;;34.45;12.79;100164.56;4988244;28;20053;-81
2022/04/14 07:05:33;;;;;;;4.63;1.23;;;;;;;35.03;12.51;100135.09;4987679;28;20042;-83
2022/04/14 07:08:02;;;;;;;5.38;1.65;;;;;;;35.49;11.87;100079.72;4976871;28;20054;-85
2022/04/14 07:10:28;;;;;;;5.90;1.15;;;;;;;37.02;11.35;100186.34;4977209;28;20069;-82
2022/04/14 07:12:55;;;;;;;2.58;0.95;;;;;;;36.80;11.56;100183.38;4996284;28;20462;-82
2022/04/14 07:15:22;;;;;;;1.40;1.00;;;;;;;35.62;11.50;100080.09;4980805;28;20141;-83
2022/04/14 07:17:48;;;;;;;3.05;0.95;;;;;;;36.00;11.45;100149.88;4998691;28;20057;-83
2022/04/14 07:20:17;;;;;;;5.97;1.10;;;;;;;36.71;10.89;100144.63;4979252;28;20144;-81
2022/04/14 07:22:49;;;;;;;10.90;1.60;;;;;;;37.42;10.20;100129.28;4973142;28;20038;-81
2022/04/14 07:25:15;;;;;;;5.55;1.35;;;;;;;38.10;10.27;100126.69;4977809;28;20378;-84
2022/04/14 07:27:42;;;;;;;7.20;1.75;;;;;;;38.52;9.96;100151.50;4970564;28;20137;-85
2022/04/14 07:30:10;;;;;;;3.42;1.10;;;;;;;37.86;10.10;100133.16;4987365;28;20044;-86
2022/04/14 07:32:43;;;;;;;2.78;1.30;;;;;;;37.53;10.52;100166.88;4970590;28;20474;-81
2022/04/14 07:35:09;;;;;;;3.90;1.20;;;;;;;37.62;10.56;100125.09;4967784;28;20077;-81
2022/04/14 07:37:38;;;;;;;3.55;0.95;;;;;;;37.79;10.08;100161.06;4987573;28;20042;-81
2022/04/14 07:40:05;;;;;;;3.33;0.90;;;;;;;37.62;9.69;100110.69;4994636;28;20117;-83
2022/04/14 07:42:33;;;;;;;2.35;1.17;;;;;;;37.88;9.41;100128.38;4989483;28;20030;-82
2022/04/14 07:44:59;;;;;;;2.60;1.27;;;;;;;38.25;9.25;100170.97;4971509;28;20046;-83
2022/04/14 07:47:27;;;;;;;2.08;1.00;;;;;;;37.53;9.45;100105.31;4970447;28;20038;-85
2022/04/14 07:49:53;;;;;;;7.40;1.77;;;;;;;37.67;9.57;100132.66;4987965;28;20141;-83
2022/04/14 07:52:19;;;;;;;2.92;0.90;;;;;;;38.16;9.59;100141.38;4986943;28;20149;-83
2022/04/14 07:54:45;;;;;;;3.88;0.85;;;;;;;38.70;9.29;100156.56;4987301;28;20057;-83
2022/04/14 07:57:12;;;;;;;1.48;1.38;;;;;;;38.89;9.20;100116.22;4969666;28;20038;-81
2022/04/14 07:59:40;;;;;;;2.17;1.05;;;;;;;38.86;8.39;100137.31;4967909;28;20680;-82
2022/04/14 08:02:06;;;;;;;8.27;1.52;;;;;;;38.26;8.83;100126.50;4971444;28;20121;-82
2022/04/14 08:04:33;;;;;;;3.13;1.10;;;;;;;38.77;8.14;100162.06;4972260;28;20042;-83
2022/04/14 08:07:02;;;;;;;8.93;1.23;;;;;;;38.36;8.90;100107.19;4955194;28;20050;-83
2022/04/14 08:09:28;;;;;;;4.05;0.98;;;;;;;38.72;8.63;100130.88;4974690;28;20046;-84
2022/04/14 08:11:54;;;;;;;2.00;1.00;;;;;;;39.47;8.59;100149.72;4968538;28;20035;-82
2022/04/14 08:14:20;;;;;;;12.25;1.15;;;;;;;39.89;8.22;100141.69;4977800;28;20047;-81
2022/04/14 08:16:46;;;;;;;2.13;1.10;;;;;;;39.88;8.21;100150.88;4988245;28;20030;-82
2022/04/14 08:19:12;;;;;;;10.18;1.70;;;;;;;39.33;8.21;100163.38;4988865;28;20038;-82
2022/04/14 08:21:41;;;;;;;3.97;1.13;;;;;;;39.26;8.37;100139.63;4954434;28;20038;-83
2022/04/14 08:24:07;;;;;;;2.95;1.20;;;;;;;39.27;8.03;100126.88;4994795;28;20445;-84
2022/04/14 08:26:33;;;;;;;7.20;1.48;;;;;;;38.69;8.22;100093.22;4993131;28;20034;-85
2022/04/14 08:29:00;;;;;;;4.28;1.20;;;;;;;38.84;7.99;100138.56;4971499;28;20042;-86
2022/04/14 08:31:36;;;;;;;;;;;;;;;;;;;;;
2022/04/14 08:34:03;;;;;;;3.15;0.82;;;;;;;38.22;8.51;100076.28;4993158;28;20186;-84
2022/04/14 08:36:32;;;;;;;2.15;1.15;;;;;;;39.06;8.07;100125.84;4976840;28;20112;-82
2022/04/14 08:38:58;;;;;;;4.85;1.75;;;;;;;39.07;7.94;100153.88;4952849;28;21515;-84
2022/04/14 08:41:33;;;;;;;1.83;1.20;;;;;;;38.86;8.29;100109.31;4993583;28;20137;-87
2022/04/14 08:44:02;;;;;;;1.00;0.90;;;;;;;38.77;7.94;100154.75;4972368;28;20105;-82
2022/04/14 08:46:33;;;;;;;1.92;0.80;;;;;;;38.91;7.97;100134.06;4995950;28;20094;-81
2022/04/14 08:48:59;;;;;;;2.35;0.80;;;;;;;38.54;8.48;100084.22;4990130;28;20113;-83
2022/04/14 08:51:35;;;;;;;2.17;0.85;;;;;;;38.48;8.05;100057.84;4985232;28;20056;-83
2022/04/14 08:54:01;;;;;;;6.05;0.90;;;;;;;38.29;7.61;100141.56;4995983;28;21782;-82
2022/04/14 08:56:28;;;;;;;1.77;1.00;;;;;;;37.56;7.99;100063.41;5003627;28;20540;-83
2022/04/14 08:58:55;;;;;;;2.63;0.88;;;;;;;37.61;8.03;100090.00;4982417;28;20464;-83
2022/04/14 09:01:25;;;;;;;1.95;0.88;;;;;;;37.18;8.26;100096.78;4981566;28;20046;-85
2022/04/14 09:03:55;;;;;;;;;;;;;;;37.13;8.49;100137.13;4988438;28;20061;-85
2022/04/14 09:06:22;;;;;;;;;;;;;;;36.73;9.02;100122.78;4984354;28;20263;-85
2022/04/14 09:08:48;;;;;;;1.85;1.13;;;;;;;36.96;9.36;100124.72;4994180;28;19972;-85
2022/04/14 09:11:16;;;;;;;3.30;0.90;;;;;;;36.59;8.61;100119.78;4975508;28;20038;-87
2022/04/14 09:13:44;;;;;;;2.53;1.10;;;;;;;36.40;9.11;100041.63;4993944;28;20054;-84
2022/04/14 09:16:10;;;;;;;1.48;0.80;;;;;;;37.20;8.79;100077.59;4989596;28;21313;-83
2022/04/14 09:18:36;;;;;;;1.58;1.00;;;;;;;37.90;8.37;100115.47;4990206;28;20080;-83
2022/04/14 09:21:05;;;;;;;3.13;1.20;;;;;;;38.30;8.37;100105.22;4979944;28;20116;-82
2022/04/14 09:23:31;;;;;;;2.22;0.95;;;;;;;38.62;8.27;100103.16;4991838;28;20083;-83
2022/04/14 09:26:00;;;;;;;9.70;1.27;;;;;;;39.00;7.86;100113.84;4993514;28;20049;-83
2022/04/14 09:28:26;;;;;;;4.25;1.00;;;;;;;38.76;7.90;100104.16;4996437;28;20038;-82
2022/04/14 09:31:10;;;;;;;1.02;0.90;;;;;;;38.18;8.04;100069.53;5007191;28;20054;-82
2022/04/14 09:33:44;;;;;;;1.45;0.80;;;;;;;38.32;8.15;100097.72;4994855;28;20050;-83
2022/04/14 09:36:18;;;;;;;3.60;1.10;;;;;;;38.75;7.76;100097.03;4993033;28;20041;-84
2022/04/14 09:38:48;;;;;;;2.55;1.08;;;;;;;39.30;7.72;100105.59;5006861;28;20110;-83
2022/04/14 09:41:40;;;;;;;24.40;2.33;;;;;;;39.13;7.57;100115.84;4986982;28;20041;-83
2022/04/14 09:44:10;;;;;;;3.85;1.25;;;;;;;38.67;7.87;100110.72;4989171;28;20057;-83
2022/04/14 09:46:41;;;;;;;2.63;0.82;;;;;;;38.25;8.23;100066.94;5007474;28;20054;-83
2022/04/14 09:49:23;;;;;;;2.25;0.82;;;;;;;38.23;7.88;99949.50;5007515;28;20081;-85
2022/04/14 09:51:51;;;;;;;1.80;1.00;;;;;;;38.42;8.09;100108.31;5012468;28;20030;-85
2022/04/14 09:54:18;;;;;;;2.33;0.80;;;;;;;38.99;7.59;100097.72;4979605;28;20039;-82
2022/04/14 09:56:47;;;;;;;2.22;0.82;;;;;;;39.37;7.54;100074.91;5010188;28;20050;-85
2022/04/14 09:59:16;;;;;;;4.93;1.38;;;;;;;39.14;7.64;100097.69;4993138;28;20106;-82
2022/04/14 10:01:43;;;;;;;6.55;1.92;;;;;;;39.15;7.72;100081.16;4993927;28;20046;-84
2022/04/14 10:04:31;;;;;;;7.13;1.10;;;;;;;39.05;7.85;100067.06;4993421;28;20050;-83
2022/04/14 10:07:02;;;;;;;2.63;0.80;;;;;;;38.84;7.61;100103.22;5004953;28;20073;-82
2022/04/14 10:09:31;;;;;;;1.33;0.75;;;;;;;38.76;7.19;100097.84;4996144;28;20042;-83
2022/04/14 10:11:58;;;;;;;5.23;1.00;;;;;;;39.24;7.52;100092.72;4998125;28;20038;-80
2022/04/14 10:14:25;;;;;;;9.88;1.42;;;;;;;39.47;7.04;100100.72;4995651;28;20069;-80
2022/04/14 10:16:51;;;;;;;2.63;0.80;;;;;;;39.22;7.03;100075.75;4978632;28;20104;-81
2022/04/14 10:19:19;;;;;;;3.58;1.25;;;;;;;39.08;7.09;100087.56;4993091;28;20042;-82
2022/04/14 10:21:45;;;;;;;4.15;1.00;;;;;;;38.14;7.17;100068.25;4992106;28;20038;-83
2022/04/14 10:24:15;;;;;;;2.10;0.90;;;;;;;37.94;7.19;100076.09;4974410;28;20061;-83
2022/04/14 10:26:43;;;;;;;1.83;0.80;;;;;;;37.42;7.40;100092.16;4961239;28;20437;-81
2022/04/14 10:29:12;;;;;;;6.45;0.90;;;;;;;37.09;7.63;100087.00;4961165;28;20048;-83
2022/04/14 10:31:40;;;;;;;3.10;0.85;;;;;;;37.02;7.96;100091.44;4979672;28;20093;-82
2022/04/14 10:34:15;;;;;;;3.40;0.98;;;;;;;37.22;7.49;100070.13;4955579;28;20042;-81
2022/04/14 10:36:45;;;;;;;1.50;0.73;;;;;;;36.80;7.21;100072.25;4962517;28;20127;-81
2022/04/14 10:39:13;;;;;;;3.45;1.17;;;;;;;35.91;7.77;100051.59;4977567;28;20046;-82
2022/04/14 10:41:45;;;;;;;5.32;1.00;;;;;;;34.13;8.37;100089.63;4992938;28;20529;-84
2022/04/14 10:44:19;;;;;;;6.68;0.95;;;;;;;31.38;9.67;100092.81;4961157;28;20046;-82
2022/04/14 10:46:48;;;;;;;;;;;;;;;29.15;10.33;100102.16;4981687;28;20552;-84
2022/04/14 10:49:16;;;;;;;3.90;0.75;;;;;;;27.18;11.26;100074.56;4977328;28;19972;-81
2022/04/14 10:51:45;;;;;;;3.35;0.90;;;;;;;25.88;12.19;100082.91;4981192;28;20042;-81
2022/04/14 10:54:12;;;;;;;8.80;1.20;;;;;;;24.27;13.10;100072.81;4948428;28;20044;-81
2022/04/14 10:56:40;;;;;;;2.58;1.08;;;;;;;23.45;13.89;100091.78;4981793;28;20051;-82
2022/04/14 10:59:15;;;;;;;3.90;1.60;;;;;;;23.06;14.74;100109.03;4965283;28;20035;-83
2022/04/14 11:01:47;;;;;;;4.70;1.10;;;;;;;22.34;15.41;100107.56;4961462;28;20068;-87
2022/04/14 11:04:23;;;;;;;4.53;0.90;;;;;;;21.64;16.21;100102.31;4994771;28;20089;-80
2022/04/14 11:06:51;;;;;;;2.30;1.23;;;;;;;21.13;16.76;100094.19;4962575;28;20038;-82
2022/04/14 11:09:40;;;;;;;2.22;1.42;;;;;;;20.80;16.97;100106.31;4976829;28;20042;-84
2022/04/14 11:12:07;;;;;;;9.57;2.00;;;;;;;20.42;17.67;100078.03;4976697;28;20062;-82
2022/04/14 11:14:57;;;;;;;4.57;1.58;;;;;;;20.01;17.91;100064.91;4997303;28;20038;-84
2022/04/14 11:20:45;;;;;;;2.38;0.98;;;;;;;19.31;19.00;100095.97;4986992;28;20095;-88
2022/04/14 11:23:17;;;;;;;6.88;2.45;;;;;;;18.81;19.14;100106.63;4963922;28;20060;-82
2022/04/14 11:25:48;;;;;;;2.53;1.15;;;;;;;18.65;19.48;100087.91;5002218;28;20049;-80
2022/04/14 11:28:30;;;;;;;5.53;1.30;;;;;;;18.24;19.71;100056.06;5012653;28;20027;-80
2022/04/14 11:30:58;;;;;;;4.57;2.25;;;;;;;18.28;19.53;100091.06;5010744;28;20065;-76
2022/04/14 11:33:36;;;;;;;3.10;0.90;;;;;;;17.96;19.72;100077.22;5000594;28;20030;-78
2022/04/14 11:36:16;;;;;;;2.42;0.98;;;;;;;17.81;20.00;100081.25;4994950;28;20050;-80
2022/04/14 11:39:05;;;;;;;8.13;2.00;;;;;;;17.50;20.25;100084.94;4978773;28;20062;-81
2022/04/14 11:41:49;;;;;;;3.60;1.00;;;;;;;17.22;20.59;100091.09;4973671;28;20405;-85
2022/04/14 11:44:19;;;;;;;4.47;1.40;;;;;;;16.74;20.71;100055.72;4973456;28;20066;-80